createdAt,value
2022-11-14T00:08:21.073Z,97215.31
2022-11-14T00:15:47.305Z,97199.16
2022-11-14T00:25:47.133Z,97187.81
2022-11-14T00:28:13.999Z,97191.41
2022-11-14T00:30:40.498Z,97193.13
2022-11-14T00:33:07.075Z,97189.19
2022-11-14T00:35:33.554Z,97193.75
2022-11-14T00:38:00.042Z,97192.28
2022-11-14T00:40:26.606Z,97192.19
2022-11-14T00:42:53.107Z,97199.41
2022-11-14T00:45:19.630Z,97194.84
2022-11-14T00:47:46.092Z,97193.63
2022-11-14T00:50:12.570Z,97194.81
2022-11-14T00:52:39.081Z,97194.81
2022-11-14T00:55:06.362Z,97189.28
2022-11-14T00:57:32.903Z,97187.75
2022-11-14T00:59:59.425Z,97190.50
2022-11-14T01:02:25.930Z,97189.69
2022-11-14T01:04:52.988Z,97175.66
2022-11-14T01:07:19.519Z,97175.75
2022-11-14T01:09:45.996Z,97173.84
2022-11-14T01:12:12.498Z,97172.81
2022-11-14T01:14:40.620Z,97177.41
2022-11-14T01:17:07.800Z,97172.94
2022-11-14T01:19:34.481Z,97180.44
2022-11-14T01:22:05.967Z,97170.50
2022-11-14T01:24:33.880Z,97185.47
2022-11-14T01:27:00.443Z,97189.69
2022-11-14T01:29:27.255Z,97183.59
2022-11-14T01:31:53.745Z,97194.06
2022-11-14T01:34:20.251Z,97195.47
2022-11-14T01:36:46.737Z,97182.81
2022-11-14T01:39:13.190Z,97187.63
2022-11-14T01:41:39.916Z,97191.00
2022-11-14T01:44:14.242Z,97192.47
2022-11-14T01:46:45.499Z,97189.09
2022-11-14T01:49:25.949Z,97175.28
2022-11-14T01:52:04.653Z,97175.94
2022-11-14T01:54:36.004Z,97184.44
2022-11-14T01:57:03.873Z,97179.41
2022-11-14T01:59:39.873Z,97173.31
2022-11-14T02:02:15.433Z,97170.81
2022-11-14T02:04:46.104Z,97170.09
2022-11-14T02:07:13.205Z,97179.03
2022-11-14T02:09:44.240Z,97169.81
2022-11-14T02:12:14.799Z,97160.53
2022-11-14T02:14:45.264Z,97155.91
2022-11-14T02:17:30.665Z,97133.09
2022-11-14T02:20:05.328Z,97123.34
2022-11-14T02:22:32.473Z,97132.66
2022-11-14T02:24:59.059Z,97122.28
2022-11-14T02:27:25.644Z,97117.25
2022-11-14T02:29:52.293Z,97123.25
2022-11-14T02:32:18.848Z,97130.31
2022-11-14T02:34:45.339Z,97132.25
2022-11-14T02:37:11.835Z,97121.78
2022-11-14T02:39:39.045Z,97121.59
2022-11-14T02:42:05.645Z,97122.44
2022-11-14T02:44:32.172Z,97121.88
2022-11-14T02:46:58.678Z,97120.25
2022-11-14T02:49:25.152Z,97116.72
2022-11-14T02:51:51.616Z,97104.13
2022-11-14T02:54:18.124Z,97107.06
2022-11-14T02:56:44.571Z,97113.84
2022-11-14T02:59:11.037Z,97113.91
2022-11-14T03:01:37.614Z,97110.16
2022-11-14T03:04:04.403Z,97108.53
2022-11-14T03:06:30.886Z,97107.72
2022-11-14T03:08:57.356Z,97092.13
2022-11-14T03:11:23.840Z,97094.03
2022-11-14T03:21:17.473Z,97108.91
2022-11-14T03:23:45.505Z,97116.69
2022-11-14T03:29:17.457Z,97122.59
2022-11-14T03:31:49.685Z,97122.16
2022-11-14T03:34:16.251Z,97122.09
2022-11-14T03:36:42.846Z,97119.69
2022-11-14T03:39:09.485Z,97112.25
2022-11-14T03:41:35.979Z,97125.28
2022-11-14T03:44:14.678Z,97127.03
2022-11-14T03:46:44.613Z,97127.81
2022-11-14T03:50:12.394Z,97123.25
2022-11-14T03:53:26.494Z,97125.63
2022-11-14T04:05:02.088Z,97124.94
2022-11-14T04:07:28.697Z,97125.63
2022-11-14T04:09:55.264Z,97130.03
2022-11-14T04:13:22.948Z,97137.25
2022-11-14T04:41:17.368Z,97145.16
2022-11-14T04:46:26.661Z,97138.00
2022-11-14T04:52:09.025Z,97136.50
2022-11-14T05:01:56.825Z,97134.34
2022-11-14T05:04:23.347Z,97137.75
2022-11-14T05:10:50.175Z,97137.84
2022-11-14T05:13:16.669Z,97139.88
2022-11-14T05:15:43.135Z,97135.88
2022-11-14T05:18:09.606Z,97136.78
2022-11-14T05:20:36.121Z,97143.78
2022-11-14T05:23:02.676Z,97139.41
2022-11-14T05:25:29.306Z,97139.88
2022-11-14T05:28:36.637Z,97151.53
2022-11-14T05:34:43.292Z,97166.19
2022-11-14T05:37:18.294Z,97162.88
2022-11-14T05:39:47.694Z,97168.97
2022-11-14T05:42:19.456Z,97175.69
2022-11-14T05:44:53.797Z,97176.91
2022-11-14T05:47:25.442Z,97180.44
2022-11-14T05:52:54.030Z,97172.53
2022-11-14T05:55:24.539Z,97174.53
2022-11-14T05:57:51.406Z,97170.19
2022-11-14T06:00:18.136Z,97171.00
2022-11-14T06:02:46.147Z,97175.84
2022-11-14T06:05:12.633Z,97177.34
2022-11-14T06:07:39.207Z,97189.03
2022-11-14T06:10:06.198Z,97184.94
2022-11-14T06:12:32.762Z,97178.88
2022-11-14T06:14:59.241Z,97186.25
2022-11-14T06:17:25.698Z,97176.16
2022-11-14T06:19:52.151Z,97182.13
2022-11-14T06:22:18.596Z,97191.56
2022-11-14T06:24:45.209Z,97196.75
2022-11-14T06:27:11.641Z,97193.16
2022-11-14T06:29:38.145Z,97197.41
2022-11-14T06:32:04.870Z,97203.22
2022-11-14T06:34:31.470Z,97210.16
2022-11-14T06:36:58.006Z,97212.56
2022-11-14T06:39:24.566Z,97211.41
2022-11-14T06:41:51.066Z,97197.56
2022-11-14T06:44:17.980Z,97200.84
2022-11-14T06:46:44.466Z,97201.44
2022-11-14T06:49:10.997Z,97200.72
2022-11-14T06:51:37.517Z,97188.81
2022-11-14T06:54:04.242Z,97182.03
2022-11-14T07:00:18.735Z,97177.47
2022-11-14T07:02:48.693Z,97181.97
2022-11-14T07:05:15.554Z,97186.06
2022-11-14T07:07:42.036Z,97204.50
2022-11-14T07:10:08.940Z,97205.91
2022-11-14T07:12:35.481Z,97213.03
2022-11-14T07:18:03.913Z,97206.78
2022-11-14T07:21:02.795Z,97218.84
2022-11-14T07:23:30.292Z,97206.78
2022-11-14T07:26:00.783Z,97207.88
2022-11-14T07:28:28.173Z,97208.31
2022-11-14T07:31:05.617Z,97207.59
2022-11-14T07:33:32.778Z,97208.34
2022-11-14T07:35:59.392Z,97208.09
2022-11-14T07:38:25.869Z,97202.16
2022-11-14T07:40:59.634Z,97215.34
2022-11-14T07:43:27.290Z,97215.31
2022-11-14T07:45:53.845Z,97203.19
2022-11-14T07:48:21.892Z,97204.06
2022-11-14T07:50:48.382Z,97210.56
2022-11-14T07:53:15.575Z,97208.59
2022-11-14T07:55:42.151Z,97211.16
2022-11-14T07:58:08.632Z,97218.50
2022-11-14T08:00:35.639Z,97206.34
2022-11-14T08:04:31.294Z,97195.03
2022-11-14T08:06:57.829Z,97183.31
2022-11-14T08:09:30.274Z,97191.97
2022-11-14T08:11:56.794Z,97175.44
2022-11-14T08:14:23.281Z,97185.28
2022-11-14T08:16:50.431Z,97181.88
2022-11-14T08:19:17.623Z,97173.44
2022-11-14T08:21:44.850Z,97169.88
2022-11-14T08:24:11.634Z,97172.97
2022-11-14T08:26:47.926Z,97168.53
2022-11-14T08:29:14.627Z,97169.44
2022-11-14T08:32:22.436Z,97156.91
2022-11-14T08:35:05.071Z,97156.38
2022-11-14T08:40:35.362Z,97141.66
2022-11-14T08:43:55.566Z,97146.88
2022-11-14T08:46:34.101Z,97131.84
2022-11-14T08:49:00.696Z,97135.94
2022-11-14T08:51:51.825Z,97127.91
2022-11-14T08:58:04.895Z,97128.22
2022-11-14T09:08:53.821Z,97127.41
2022-11-14T09:24:58.346Z,97115.19
2022-11-14T09:27:58.447Z,97105.78
2022-11-14T09:30:30.036Z,97107.88
2022-11-14T09:33:00.903Z,97099.75
2022-11-14T09:35:28.284Z,97114.97
2022-11-14T09:38:06.494Z,97102.66
2022-11-14T09:41:08.234Z,97104.41
2022-11-14T09:44:20.118Z,97107.19
2022-11-14T09:46:53.856Z,97103.09
2022-11-14T09:49:40.248Z,97109.72
2022-11-14T09:52:35.093Z,97106.94
2022-11-14T09:55:10.677Z,97101.84
2022-11-14T09:57:37.317Z,97108.56
2022-11-14T10:01:09.396Z,97108.56
2022-11-14T10:04:05.827Z,97107.19
2022-11-14T10:06:50.546Z,97118.13
2022-11-14T10:09:59.281Z,97108.09
2022-11-14T10:12:45.204Z,97112.41
2022-11-14T10:15:34.041Z,97106.88
2022-11-14T10:18:28.010Z,97100.47
2022-11-14T10:33:08.871Z,97101.63
2022-11-14T10:36:00.333Z,97101.41
2022-11-14T10:38:43.692Z,97102.97
2022-11-14T10:41:19.218Z,97101.50
2022-11-14T10:43:55.425Z,97096.00
2022-11-14T10:46:53.801Z,97094.50
2022-11-14T10:53:33.161Z,97100.97
2022-11-14T10:56:04.662Z,97098.34
2022-11-14T10:59:34.338Z,97104.84
2022-11-14T11:02:00.811Z,97097.66
2022-11-14T11:04:32.491Z,97090.13
2022-11-14T11:07:44.336Z,97086.97
2022-11-14T11:10:41.724Z,97091.28
2022-11-14T11:13:13.960Z,97099.38
2022-11-14T11:15:41.808Z,97086.88
2022-11-14T11:18:34.495Z,97095.69
2022-11-14T11:21:12.861Z,97092.03
2022-11-14T11:24:08.938Z,97078.75
2022-11-14T11:26:35.462Z,97086.31
2022-11-14T11:29:05.487Z,97084.75
2022-11-14T11:31:47.137Z,97077.88
2022-11-14T11:34:13.694Z,97076.38
2022-11-14T11:36:53.806Z,97080.72
2022-11-14T11:39:26.561Z,97076.38
2022-11-14T11:45:17.452Z,97065.84
2022-11-14T11:48:01.808Z,97064.59
2022-11-14T11:51:03.382Z,97063.97
2022-11-14T11:53:36.643Z,97061.00
2022-11-14T11:56:15.469Z,97053.56
2022-11-14T11:58:48.931Z,97045.75
2022-11-14T12:01:16.160Z,97027.66
2022-11-14T12:03:50.243Z,97019.50
2022-11-14T12:06:54.459Z,97016.66
2022-11-14T12:09:42.466Z,97023.97
2022-11-14T12:16:23.733Z,97005.63
2022-11-14T12:30:43.327Z,97029.72
2022-11-14T12:33:33.689Z,97027.41
2022-11-14T12:36:02.886Z,97040.66
2022-11-14T12:38:42.165Z,97040.22
2022-11-14T12:41:09.684Z,97036.84
2022-11-14T12:43:42.881Z,97043.03
2022-11-14T12:46:11.740Z,97041.84
2022-11-14T12:48:42.371Z,97050.84
2022-11-14T12:51:24.145Z,97037.38
2022-11-14T12:53:51.347Z,97038.16
2022-11-14T12:56:33.033Z,97036.94
2022-11-14T12:59:14.674Z,97034.78
2022-11-14T13:01:53.489Z,97036.72
2022-11-14T13:04:43.609Z,97048.09
2022-11-14T13:07:48.959Z,97055.28
2022-11-14T13:14:14.662Z,97052.81
2022-11-14T13:16:59.709Z,97049.81
2022-11-14T13:26:45.581Z,97061.75
2022-11-14T13:33:02.672Z,97060.72
2022-11-14T13:35:49.023Z,97066.59
2022-11-14T13:42:02.150Z,97073.78
2022-11-14T13:44:53.408Z,97087.47
2022-11-14T13:51:36.693Z,97078.06
2022-11-14T13:53:59.588Z,97077.25
2022-11-14T13:56:48.333Z,97076.66
2022-11-14T13:59:36.254Z,97080.13
2022-11-14T14:02:11.687Z,97084.00
2022-11-14T14:08:36.446Z,97092.63
2022-11-14T14:11:23.179Z,97098.44
2022-11-14T14:14:01.924Z,97107.31
2022-11-14T14:16:52.809Z,97113.56
2022-11-14T14:23:18.125Z,97125.63
2022-11-14T14:29:43.815Z,97133.03
2022-11-14T14:32:13.254Z,97138.78
2022-11-14T14:38:29.255Z,97130.66
2022-11-14T14:40:56.539Z,97137.53
2022-11-14T14:47:21.372Z,97137.94
2022-11-14T14:49:47.955Z,97133.16
2022-11-14T14:52:31.757Z,97146.84
2022-11-14T14:55:02.227Z,97144.69
2022-11-14T14:57:30.394Z,97149.47
2022-11-14T15:00:07.668Z,97145.69
2022-11-14T15:02:37.466Z,97142.69
2022-11-14T15:05:05.243Z,97138.94
2022-11-14T15:07:31.863Z,97147.06
2022-11-14T15:13:46.548Z,97151.00
2022-11-14T15:16:13.383Z,97143.50
2022-11-14T15:18:40.228Z,97153.38
2022-11-14T15:21:28.069Z,97161.34
2022-11-14T15:24:00.319Z,97153.16
2022-11-14T15:26:28.662Z,97158.03
2022-11-14T15:29:05.897Z,97159.47
2022-11-14T15:31:35.972Z,97161.19
2022-11-14T15:34:04.294Z,97163.50
2022-11-14T15:36:30.907Z,97165.84
2022-11-14T15:38:59.962Z,97159.50
2022-11-14T15:41:30.304Z,97168.75
2022-11-14T15:44:05.190Z,97172.63
2022-11-14T15:46:35.286Z,97169.19
2022-11-14T15:49:07.006Z,97164.84
2022-11-14T15:52:20.202Z,97171.00
2022-11-14T15:54:46.669Z,97171.03
2022-11-14T15:57:14.864Z,97170.44
2022-11-14T15:59:41.392Z,97179.75
2022-11-14T16:02:16.038Z,97181.47
2022-11-14T16:04:47.484Z,97174.03
2022-11-14T16:07:16.459Z,97178.06
2022-11-14T16:09:43.115Z,97176.66
2022-11-14T16:12:09.665Z,97183.50
2022-11-14T16:14:36.515Z,97186.66
2022-11-14T16:17:03.775Z,97183.66
2022-11-14T16:19:30.541Z,97185.94
2022-11-14T16:22:02.792Z,97190.31
2022-11-14T16:24:33.828Z,97177.00
2022-11-14T16:27:00.921Z,97177.00
2022-11-14T16:29:27.505Z,97182.34
2022-11-14T16:31:55.334Z,97173.66
2022-11-14T16:34:26.571Z,97180.78
2022-11-14T16:37:02.101Z,97181.88
2022-11-14T16:39:29.265Z,97174.84
2022-11-14T16:42:02.790Z,97175.03
2022-11-14T16:44:29.857Z,97177.56
2022-11-14T16:46:56.534Z,97183.72
2022-11-14T16:49:23.612Z,97184.63
2022-11-14T16:51:51.431Z,97195.50
2022-11-14T16:54:19.423Z,97189.81
2022-11-14T16:56:46.524Z,97186.84
2022-11-14T16:59:13.245Z,97184.59
2022-11-14T17:01:40.069Z,97190.09
2022-11-14T17:04:06.599Z,97199.00
2022-11-14T17:06:33.700Z,97204.25
2022-11-14T17:09:00.885Z,97204.16
2022-11-14T17:11:28.425Z,97206.53
2022-11-14T17:13:56.591Z,97209.63
2022-11-14T17:16:23.667Z,97206.63
2022-11-14T17:18:54.570Z,97206.53
2022-11-14T17:21:21.883Z,97211.31
2022-11-14T17:24:03.160Z,97212.78
2022-11-14T17:26:29.872Z,97216.38
2022-11-14T17:28:56.607Z,97216.63
2022-11-14T17:31:23.157Z,97214.00
2022-11-14T17:33:54.461Z,97214.00
2022-11-14T17:36:22.902Z,97214.91
2022-11-14T17:38:49.514Z,97218.84
2022-11-14T17:41:16.155Z,97211.69
2022-11-14T17:43:43.379Z,97207.50
2022-11-14T17:46:15.991Z,97208.38
2022-11-14T17:48:44.251Z,97208.50
2022-11-14T17:51:13.654Z,97207.44
2022-11-14T17:53:40.763Z,97205.34
2022-11-14T17:56:11.856Z,97212.53
2022-11-14T17:58:38.313Z,97209.28
2022-11-14T18:01:31.704Z,97206.84
2022-11-14T18:04:01.750Z,97209.06
2022-11-14T18:06:31.113Z,97218.25
2022-11-14T18:08:57.681Z,97214.03
2022-11-14T18:11:24.232Z,97211.44
2022-11-14T18:13:55.172Z,97220.19
2022-11-14T18:16:22.670Z,97216.81
2022-11-14T18:18:49.165Z,97211.06
2022-11-14T18:21:19.550Z,97217.91
2022-11-14T18:23:56.586Z,97219.19
2022-11-14T18:26:28.795Z,97212.13
2022-11-14T18:28:56.723Z,97214.94
2022-11-14T18:31:23.769Z,97209.81
2022-11-14T18:33:50.746Z,97211.22
2022-11-14T18:36:17.948Z,97209.06
2022-11-14T18:38:45.170Z,97212.81
2022-11-14T18:41:17.974Z,97210.97
2022-11-14T18:43:45.551Z,97219.50
2022-11-14T18:46:17.065Z,97210.63
2022-11-14T18:48:46.816Z,97215.59
2022-11-14T18:51:14.849Z,97211.44
2022-11-14T18:53:41.475Z,97213.16
2022-11-14T18:56:10.512Z,97216.06
2022-11-14T18:58:39.731Z,97212.59
2022-11-14T19:01:32.489Z,97207.66
2022-11-14T19:04:00.577Z,97211.88
2022-11-14T19:06:27.275Z,97208.88
2022-11-14T19:09:03.577Z,97215.28
2022-11-14T19:11:52.527Z,97213.63
2022-11-14T19:14:20.027Z,97212.97
2022-11-14T19:16:46.937Z,97211.81
2022-11-14T19:19:15.079Z,97207.72
2022-11-14T19:21:41.792Z,97212.94
2022-11-14T19:24:08.987Z,97209.88
2022-11-14T19:26:35.580Z,97218.41
2022-11-14T19:29:04.335Z,97212.00
2022-11-14T19:31:31.169Z,97212.56
2022-11-14T19:33:57.633Z,97212.81
2022-11-14T19:36:59.518Z,97213.28
2022-11-14T19:39:10.686Z,97209.28
2022-11-14T19:41:37.317Z,97214.56
2022-11-14T19:44:03.958Z,97224.47
2022-11-14T19:46:30.463Z,97219.13
2022-11-14T19:48:58.358Z,97223.31
2022-11-14T19:51:25.561Z,97215.28
2022-11-14T19:53:55.717Z,97218.56
2022-11-14T19:56:22.698Z,97227.00
2022-11-14T19:58:51.126Z,97230.09
2022-11-14T20:01:23.519Z,97224.22
2022-11-14T20:03:54.942Z,97227.00
2022-11-14T20:06:26.234Z,97232.97
2022-11-14T20:08:54.339Z,97231.34
2022-11-14T20:11:21.651Z,97236.19
2022-11-14T20:13:48.646Z,97235.50
2022-11-14T20:16:20.781Z,97221.75
2022-11-14T20:18:59.277Z,97225.03
2022-11-14T20:21:27.861Z,97221.75
2022-11-14T20:23:54.546Z,97217.91
2022-11-14T20:26:22.034Z,97216.41
2022-11-14T20:28:51.956Z,97216.31
2022-11-14T20:31:21.098Z,97220.56
2022-11-14T20:33:49.063Z,97219.75
2022-11-14T20:36:19.019Z,97222.03
2022-11-14T20:38:45.609Z,97223.84
2022-11-14T20:41:12.649Z,97232.94
2022-11-14T20:43:39.988Z,97226.69
2022-11-14T20:46:12.396Z,97231.75
2022-11-14T20:48:39.549Z,97225.59
2022-11-14T20:51:28.247Z,97236.75
2022-11-14T20:53:55.389Z,97229.16
2022-11-14T20:56:23.162Z,97227.78
2022-11-14T20:58:52.115Z,97228.34
2022-11-14T21:01:19.190Z,97218.44
2022-11-14T21:03:46.965Z,97219.72
2022-11-14T21:06:16.213Z,97231.06
2022-11-14T21:08:43.251Z,97221.00
2022-11-14T21:11:14.073Z,97226.31
2022-11-14T21:13:59.234Z,97212.75
2022-11-14T21:16:30.755Z,97219.06
2022-11-14T21:18:58.159Z,97220.78
2022-11-14T21:21:27.384Z,97219.16
2022-11-14T21:23:55.049Z,97217.94
2022-11-14T21:26:21.534Z,97211.34
2022-11-14T21:28:51.590Z,97206.06
2022-11-14T21:31:23.900Z,97204.50
2022-11-14T21:33:54.685Z,97207.44
2022-11-14T21:39:07.806Z,97207.31
2022-11-14T21:41:34.299Z,97206.84
2022-11-14T21:44:02.930Z,97203.53
2022-11-14T21:46:29.493Z,97201.97
2022-11-14T21:48:57.247Z,97193.00
2022-11-14T21:51:28.309Z,97192.53
2022-11-14T21:53:58.578Z,97190.06
2022-11-14T21:56:30.016Z,97190.88
2022-11-14T21:59:12.772Z,97191.66
2022-11-14T22:01:58.906Z,97193.22
2022-11-14T22:04:25.987Z,97187.25
2022-11-14T22:06:52.840Z,97189.78
2022-11-14T22:09:19.660Z,97193.47
2022-11-14T22:11:46.688Z,97193.72
2022-11-14T22:14:13.162Z,97185.69
2022-11-14T22:16:40.047Z,97190.06
2022-11-14T22:19:06.884Z,97189.38
2022-11-14T22:21:33.396Z,97181.78
2022-11-14T22:24:00.717Z,97182.63
2022-11-14T22:26:27.184Z,97193.41
2022-11-14T22:28:53.703Z,97189.97
2022-11-14T22:31:22.931Z,97198.69
2022-11-14T22:33:51.997Z,97186.09
2022-11-14T22:36:21.017Z,97180.13
2022-11-14T22:38:48.607Z,97181.31
2022-11-14T22:41:31.878Z,97182.59
2022-11-14T22:43:59.168Z,97187.16
2022-11-14T22:46:25.647Z,97180.13
2022-11-14T22:48:52.202Z,97186.63
2022-11-14T22:51:21.187Z,97180.19
2022-11-14T22:53:50.173Z,97181.41
2022-11-14T22:56:18.767Z,97181.41
2022-11-14T22:58:45.971Z,97182.41
2022-11-14T23:01:26.522Z,97180.38
2022-11-14T23:04:00.860Z,97182.03
2022-11-14T23:06:28.502Z,97183.84
2022-11-14T23:08:55.384Z,97174.16
2022-11-14T23:11:24.633Z,97172.59
2022-11-14T23:13:53.191Z,97180.66
2022-11-14T23:16:22.367Z,97166.31
2022-11-14T23:18:49.738Z,97168.03
2022-11-14T23:21:19.003Z,97171.53
2022-11-14T23:23:45.555Z,97169.09
2022-11-14T23:26:17.052Z,97173.78
2022-11-14T23:28:43.633Z,97174.59
2022-11-14T23:31:11.443Z,97165.75
2022-11-14T23:33:38.238Z,97157.84
2022-11-14T23:36:05.172Z,97156.22
2022-11-14T23:38:31.708Z,97155.31
2022-11-14T23:41:01.359Z,97158.00
2022-11-14T23:43:29.580Z,97152.34
2022-11-14T23:45:56.938Z,97144.75
2022-11-14T23:48:23.725Z,97140.34
2022-11-14T23:50:54.818Z,97144.94
2022-11-14T23:53:22.244Z,97139.38
2022-11-14T23:55:52.905Z,97143.97
2022-11-14T23:58:20.260Z,97139.59
